Nunez, GA (30448)

8:48 PM EDT on September 21, 2014 (GMT -0400)
Emanuel County | Change Station
CLOSE
Current Station
Airport
Location: Swainsboro,
Elevation: 328 ft
Nearby Weather Stations

Elev 328 ft 32.61 °N, 82.37 °W | Updated 13 minutes ago

Clear
Clear
79 °F
Feels Like 79 °F
N
5
Wind Variable Wind from SSW

Today
High -- | Low -- °F
--% Chance of Precip.
Yesterday
High -- | Low -- °F
Precip. -- in
7:16 AM 7:27 PM
Waning Crescent, 5% visible
Pressure 29.96 in
Visibility 10.0 miles
Clouds Clear
Dew Point 68 °F
Humidity 69%
Rainfall 0.00 in
Snow Depth Not available.
UV 0 out of 12
Pollen 7.80 out of 12
Air Quality Not available.
Flu Activity Not available.
METAR KSBO 220035Z AUTO 21004KT 10SM CLR 26/20 A2996 RMK AO2

More Conditions Fewer Conditions

Pressure 29.96 in
Visibility 10.0 miles
Clouds Clear
Dew Point 68 °F
Humidity 69%
Rainfall 0.00 in
Snow Depth Not available.
UV 0 out of 12
Pollen 7.80 out of 12
Air Quality Not available.
Flu Activity Not available.
METAR KSBO 220035Z AUTO 21004KT 10SM CLR 26/20 A2996 RMK AO2

More Conditions Fewer Conditions

10-Day Weather Forecast

Almanac

Astronomy

Sep. 21, 2014 Rise Set
Actual Time 7:16 AM EDT 7:27 PM EDT
Civil Twilight 6:52 AM EDT 7:51 PM EDT
Nautical Twilight 6:23 AM EDT 8:20 PM EDT
Astronomical Twilight 5:54 AM EDT 8:49 PM EDT
Moon 4:56 AM EDT (9/21) 5:57 PM EDT (9/21)
Length of Visible Light 12h 59m
Length of Day
12h 10m
Tomorrow will be 2m 0s shorter.
Waning Crescent, 5% of the Moon is Illuminated
Today
Waning Crescent
Sep 24
New
Oct 1
First Quarter
Oct 8
Full
Oct 15
Last Quarter

Today's Extremes

State Highs State Lows

Community

WunderPhotos

Upload Photos

1,755,316 photos uploaded!

WunderBlogs® & News

Nearby

Snow Depth

Station Depth Elevation
No new snow has been reported.

Earthquake Activity

City Distance Mag. Time & Date
New Ellenton, South Carolina 75 miles 2.6 4:38 PM EDT
2014-09-19
Minimum magnitude displayed is 2.5.

Coastal Water Temperatures

Place Temperature
No Stations Reporting

Nearby Weather Stations